sensor_id;sensor_type;location;lat;lon;timestamp;temperature;humidity
54168;DHT22;40072;50.958;3.592;2022-12-05T00:00:31;3.00;99.90
54168;DHT22;40072;50.958;3.592;2022-12-05T00:02:57;2.80;99.90
54168;DHT22;40072;50.958;3.592;2022-12-05T00:05:23;2.60;99.90
54168;DHT22;40072;50.958;3.592;2022-12-05T00:07:49;2.90;99.90
54168;DHT22;40072;50.958;3.592;2022-12-05T00:10:14;3.10;99.90
54168;DHT22;40072;50.958;3.592;2022-12-05T00:12:40;3.20;99.90
54168;DHT22;40072;50.958;3.592;2022-12-05T00:15:06;3.20;99.90
54168;DHT22;40072;50.958;3.592;2022-12-05T00:17:37;3.00;99.90
54168;DHT22;40072;50.958;3.592;2022-12-05T00:20:04;3.10;99.90
54168;DHT22;40072;50.958;3.592;2022-12-05T00:22:30;3.20;99.90
54168;DHT22;40072;50.958;3.592;2022-12-05T00:24:55;3.10;99.90
54168;DHT22;40072;50.958;3.592;2022-12-05T00:27:21;2.80;99.90
54168;DHT22;40072;50.958;3.592;2022-12-05T00:29:47;2.90;99.90
54168;DHT22;40072;50.958;3.592;2022-12-05T00:32:12;3.00;99.90
54168;DHT22;40072;50.958;3.592;2022-12-05T00:34:38;2.70;99.90
54168;DHT22;40072;50.958;3.592;2022-12-05T00:37:04;2.90;99.90
54168;DHT22;40072;50.958;3.592;2022-12-05T00:39:29;3.10;99.90
54168;DHT22;40072;50.958;3.592;2022-12-05T00:41:55;2.90;99.90
54168;DHT22;40072;50.958;3.592;2022-12-05T00:44:21;3.00;99.90
54168;DHT22;40072;50.958;3.592;2022-12-05T00:46:46;3.00;99.90
54168;DHT22;40072;50.958;3.592;2022-12-05T00:49:12;3.10;99.90
54168;DHT22;40072;50.958;3.592;2022-12-05T00:51:40;3.00;99.90
54168;DHT22;40072;50.958;3.592;2022-12-05T00:54:08;2.80;99.90
54168;DHT22;40072;50.958;3.592;2022-12-05T00:56:35;2.70;99.90
54168;DHT22;40072;50.958;3.592;2022-12-05T00:59:02;2.90;99.90
54168;DHT22;40072;50.958;3.592;2022-12-05T01:01:30;3.00;99.90
54168;DHT22;40072;50.958;3.592;2022-12-05T01:03:58;3.10;99.90
54168;DHT22;40072;50.958;3.592;2022-12-05T01:06:25;2.90;99.90
54168;DHT22;40072;50.958;3.592;2022-12-05T01:08:52;2.80;99.90
54168;DHT22;40072;50.958;3.592;2022-12-05T01:11:18;3.00;99.90
54168;DHT22;40072;50.958;3.592;2022-12-05T01:13:45;3.20;99.90
54168;DHT22;40072;50.958;3.592;2022-12-05T01:16:20;2.90;99.90
54168;DHT22;40072;50.958;3.592;2022-12-05T01:18:46;3.00;99.90
54168;DHT22;40072;50.958;3.592;2022-12-05T01:21:12;3.20;99.90
54168;DHT22;40072;50.958;3.592;2022-12-05T01:23:38;3.20;99.90
54168;DHT22;40072;50.958;3.592;2022-12-05T01:26:09;2.90;99.90
54168;DHT22;40072;50.958;3.592;2022-12-05T01:28:35;3.20;99.90
54168;DHT22;40072;50.958;3.592;2022-12-05T01:33:51;3.20;99.90
54168;DHT22;40072;50.958;3.592;2022-12-05T01:36:17;3.40;99.90
54168;DHT22;40072;50.958;3.592;2022-12-05T01:38:43;3.50;99.90
54168;DHT22;40072;50.958;3.592;2022-12-05T01:41:37;3.60;99.90
54168;DHT22;40072;50.958;3.592;2022-12-05T01:46:43;3.60;99.90
54168;DHT22;40072;50.958;3.592;2022-12-05T01:49:16;3.60;99.90
54168;DHT22;40072;50.958;3.592;2022-12-05T01:51:49;3.60;99.90
54168;DHT22;40072;50.958;3.592;2022-12-05T01:54:17;3.70;99.90
54168;DHT22;40072;50.958;3.592;2022-12-05T01:56:48;3.80;99.90
54168;DHT22;40072;50.958;3.592;2022-12-05T01:59:16;3.80;99.90
54168;DHT22;40072;50.958;3.592;2022-12-05T02:01:43;3.80;99.90
54168;DHT22;40072;50.958;3.592;2022-12-05T02:04:09;3.90;99.90
54168;DHT22;40072;50.958;3.592;2022-12-05T02:06:35;4.00;99.90
54168;DHT22;40072;50.958;3.592;2022-12-05T02:09:01;4.00;99.90
54168;DHT22;40072;50.958;3.592;2022-12-05T02:11:28;3.90;99.90
54168;DHT22;40072;50.958;3.592;2022-12-05T02:14:13;3.90;99.90
54168;DHT22;40072;50.958;3.592;2022-12-05T02:16:48;3.80;99.90
54168;DHT22;40072;50.958;3.592;2022-12-05T02:31:09;3.90;99.90
54168;DHT22;40072;50.958;3.592;2022-12-05T02:34:06;3.80;99.90
54168;DHT22;40072;50.958;3.592;2022-12-05T02:42:35;3.90;99.90
54168;DHT22;40072;50.958;3.592;2022-12-05T02:45:04;3.90;99.90
54168;DHT22;40072;50.958;3.592;2022-12-05T02:47:37;4.00;99.90
54168;DHT22;40072;50.958;3.592;2022-12-05T02:50:06;4.00;99.90
54168;DHT22;40072;50.958;3.592;2022-12-05T02:52:34;4.00;99.90
54168;DHT22;40072;50.958;3.592;2022-12-05T02:55:01;4.10;99.90
54168;DHT22;40072;50.958;3.592;2022-12-05T02:57:27;4.00;99.90
54168;DHT22;40072;50.958;3.592;2022-12-05T02:59:53;4.00;99.90
54168;DHT22;40072;50.958;3.592;2022-12-05T03:02:27;4.00;99.90
54168;DHT22;40072;50.958;3.592;2022-12-05T03:04:58;3.90;99.90
54168;DHT22;40072;50.958;3.592;2022-12-05T03:07:30;4.00;99.90
54168;DHT22;40072;50.958;3.592;2022-12-05T03:09:59;4.10;99.90
54168;DHT22;40072;50.958;3.592;2022-12-05T03:12:36;4.20;99.90
54168;DHT22;40072;50.958;3.592;2022-12-05T03:15:25;4.20;99.90
54168;DHT22;40072;50.958;3.592;2022-12-05T03:20:44;4.20;99.90
54168;DHT22;40072;50.958;3.592;2022-12-05T03:23:22;4.10;99.90
54168;DHT22;40072;50.958;3.592;2022-12-05T03:26:09;4.20;99.90
54168;DHT22;40072;50.958;3.592;2022-12-05T03:28:53;4.10;99.90
54168;DHT22;40072;50.958;3.592;2022-12-05T03:31:33;4.10;99.90
54168;DHT22;40072;50.958;3.592;2022-12-05T03:34:03;4.00;99.90
54168;DHT22;40072;50.958;3.592;2022-12-05T03:36:38;4.00;99.90
54168;DHT22;40072;50.958;3.592;2022-12-05T03:42:02;3.80;99.90
54168;DHT22;40072;50.958;3.592;2022-12-05T03:47:19;3.80;99.90
54168;DHT22;40072;50.958;3.592;2022-12-05T03:49:51;3.80;99.90
54168;DHT22;40072;50.958;3.592;2022-12-05T03:52:33;3.70;99.90
54168;DHT22;40072;50.958;3.592;2022-12-05T03:55:04;3.70;99.90
54168;DHT22;40072;50.958;3.592;2022-12-05T03:57:40;3.70;99.90
54168;DHT22;40072;50.958;3.592;2022-12-05T04:00:20;3.60;99.90
54168;DHT22;40072;50.958;3.592;2022-12-05T04:03:09;3.70;99.90
54168;DHT22;40072;50.958;3.592;2022-12-05T04:05:42;3.90;99.90
54168;DHT22;40072;50.958;3.592;2022-12-05T04:08:16;3.90;99.90
54168;DHT22;40072;50.958;3.592;2022-12-05T04:10:47;3.90;99.90
54168;DHT22;40072;50.958;3.592;2022-12-05T04:13:15;3.90;99.90
54168;DHT22;40072;50.958;3.592;2022-12-05T04:15:55;4.10;99.90
54168;DHT22;40072;50.958;3.592;2022-12-05T04:18:46;3.90;99.90
54168;DHT22;40072;50.958;3.592;2022-12-05T04:21:15;4.10;99.90
54168;DHT22;40072;50.958;3.592;2022-12-05T04:24:00;3.80;99.90
54168;DHT22;40072;50.958;3.592;2022-12-05T04:26:47;3.60;99.90
54168;DHT22;40072;50.958;3.592;2022-12-05T04:29:26;3.80;99.90
54168;DHT22;40072;50.958;3.592;2022-12-05T04:31:58;3.80;99.90
54168;DHT22;40072;50.958;3.592;2022-12-05T04:34:28;4.00;99.90
54168;DHT22;40072;50.958;3.592;2022-12-05T04:37:01;4.10;99.90
54168;DHT22;40072;50.958;3.592;2022-12-05T04:39:40;4.10;99.90
54168;DHT22;40072;50.958;3.592;2022-12-05T04:42:28;3.90;99.90
54168;DHT22;40072;50.958;3.592;2022-12-05T04:45:01;3.90;99.90
54168;DHT22;40072;50.958;3.592;2022-12-05T04:47:31;3.90;99.90
54168;DHT22;40072;50.958;3.592;2022-12-05T04:50:01;3.80;99.90
54168;DHT22;40072;50.958;3.592;2022-12-05T04:52:28;3.90;99.90
54168;DHT22;40072;50.958;3.592;2022-12-05T04:57:46;4.10;99.90
54168;DHT22;40072;50.958;3.592;2022-12-05T05:00:14;4.00;99.90
54168;DHT22;40072;50.958;3.592;2022-12-05T05:02:49;4.10;99.90
54168;DHT22;40072;50.958;3.592;2022-12-05T05:05:18;4.20;99.90
54168;DHT22;40072;50.958;3.592;2022-12-05T05:07:46;4.30;99.90
54168;DHT22;40072;50.958;3.592;2022-12-05T05:10:15;4.50;99.90
54168;DHT22;40072;50.958;3.592;2022-12-05T05:12:42;4.60;99.90
54168;DHT22;40072;50.958;3.592;2022-12-05T05:15:07;4.30;99.90
54168;DHT22;40072;50.958;3.592;2022-12-05T05:17:33;4.30;99.90
54168;DHT22;40072;50.958;3.592;2022-12-05T05:19:59;4.40;99.90
54168;DHT22;40072;50.958;3.592;2022-12-05T05:22:43;4.40;99.90
54168;DHT22;40072;50.958;3.592;2022-12-05T05:25:08;4.40;99.90
54168;DHT22;40072;50.958;3.592;2022-12-05T05:27:34;4.50;99.90
54168;DHT22;40072;50.958;3.592;2022-12-05T05:30:00;4.60;99.90
54168;DHT22;40072;50.958;3.592;2022-12-05T05:32:25;4.50;99.90
54168;DHT22;40072;50.958;3.592;2022-12-05T05:34:51;4.40;99.90
54168;DHT22;40072;50.958;3.592;2022-12-05T05:37:16;4.50;99.90
54168;DHT22;40072;50.958;3.592;2022-12-05T05:39:42;4.50;99.90
54168;DHT22;40072;50.958;3.592;2022-12-05T05:42:08;4.30;99.90
54168;DHT22;40072;50.958;3.592;2022-12-05T05:44:33;4.20;99.90
54168;DHT22;40072;50.958;3.592;2022-12-05T05:46:59;4.30;99.90
54168;DHT22;40072;50.958;3.592;2022-12-05T05:49:25;4.00;99.90
54168;DHT22;40072;50.958;3.592;2022-12-05T05:51:50;3.90;99.90
54168;DHT22;40072;50.958;3.592;2022-12-05T05:54:16;3.90;99.90
54168;DHT22;40072;50.958;3.592;2022-12-05T05:56:42;4.00;99.90
54168;DHT22;40072;50.958;3.592;2022-12-05T05:59:08;3.90;99.90
54168;DHT22;40072;50.958;3.592;2022-12-05T06:01:33;4.10;99.90
54168;DHT22;40072;50.958;3.592;2022-12-05T06:03:59;3.90;99.90
54168;DHT22;40072;50.958;3.592;2022-12-05T06:06:25;3.80;99.90
54168;DHT22;40072;50.958;3.592;2022-12-05T06:08:51;4.10;99.90
54168;DHT22;40072;50.958;3.592;2022-12-05T06:11:19;4.00;99.90
54168;DHT22;40072;50.958;3.592;2022-12-05T06:13:46;4.00;99.90
54168;DHT22;40072;50.958;3.592;2022-12-05T06:16:13;4.10;99.90
54168;DHT22;40072;50.958;3.592;2022-12-05T06:18:39;4.10;99.90
54168;DHT22;40072;50.958;3.592;2022-12-05T06:21:06;4.30;99.90
54168;DHT22;40072;50.958;3.592;2022-12-05T06:23:35;4.00;99.90
54168;DHT22;40072;50.958;3.592;2022-12-05T06:26:02;4.10;99.90
54168;DHT22;40072;50.958;3.592;2022-12-05T06:28:28;4.10;99.90
54168;DHT22;40072;50.958;3.592;2022-12-05T06:30:53;4.10;99.90
54168;DHT22;40072;50.958;3.592;2022-12-05T06:33:19;4.10;99.90
54168;DHT22;40072;50.958;3.592;2022-12-05T06:35:45;4.10;99.90
54168;DHT22;40072;50.958;3.592;2022-12-05T06:38:11;4.20;99.90
54168;DHT22;40072;50.958;3.592;2022-12-05T06:40:44;4.10;99.90
54168;DHT22;40072;50.958;3.592;2022-12-05T06:43:10;3.90;99.90
54168;DHT22;40072;50.958;3.592;2022-12-05T06:45:39;4.00;99.90
54168;DHT22;40072;50.958;3.592;2022-12-05T06:48:05;4.00;99.90
54168;DHT22;40072;50.958;3.592;2022-12-05T06:50:31;4.30;99.90
54168;DHT22;40072;50.958;3.592;2022-12-05T06:52:57;4.20;99.90
54168;DHT22;40072;50.958;3.592;2022-12-05T06:55:22;4.30;99.90
54168;DHT22;40072;50.958;3.592;2022-12-05T06:57:48;4.30;99.90
54168;DHT22;40072;50.958;3.592;2022-12-05T07:00:14;4.30;99.90
54168;DHT22;40072;50.958;3.592;2022-12-05T07:02:58;4.20;99.90
54168;DHT22;40072;50.958;3.592;2022-12-05T07:05:24;4.10;99.90
54168;DHT22;40072;50.958;3.592;2022-12-05T07:07:49;4.20;99.90
54168;DHT22;40072;50.958;3.592;2022-12-05T07:10:15;4.30;99.90
54168;DHT22;40072;50.958;3.592;2022-12-05T07:12:41;4.10;99.90
54168;DHT22;40072;50.958;3.592;2022-12-05T07:15:06;4.30;99.90
54168;DHT22;40072;50.958;3.592;2022-12-05T07:17:35;4.30;99.90
54168;DHT22;40072;50.958;3.592;2022-12-05T07:20:02;4.20;99.90
54168;DHT22;40072;50.958;3.592;2022-12-05T07:22:28;4.20;99.90
54168;DHT22;40072;50.958;3.592;2022-12-05T07:24:54;4.20;99.90
54168;DHT22;40072;50.958;3.592;2022-12-05T07:27:19;4.20;99.90
54168;DHT22;40072;50.958;3.592;2022-12-05T07:29:45;4.20;99.90
54168;DHT22;40072;50.958;3.592;2022-12-05T07:32:11;4.20;99.90
54168;DHT22;40072;50.958;3.592;2022-12-05T07:34:36;4.20;99.90
54168;DHT22;40072;50.958;3.592;2022-12-05T07:37:03;4.10;99.90
54168;DHT22;40072;50.958;3.592;2022-12-05T07:39:29;4.30;99.90
54168;DHT22;40072;50.958;3.592;2022-12-05T07:41:54;4.40;99.90
54168;DHT22;40072;50.958;3.592;2022-12-05T07:44:20;4.30;99.90
54168;DHT22;40072;50.958;3.592;2022-12-05T07:46:46;4.40;99.90
54168;DHT22;40072;50.958;3.592;2022-12-05T07:49:11;4.50;99.90
54168;DHT22;40072;50.958;3.592;2022-12-05T07:51:37;4.40;99.90
54168;DHT22;40072;50.958;3.592;2022-12-05T07:54:03;4.50;99.90
54168;DHT22;40072;50.958;3.592;2022-12-05T07:56:29;4.50;99.90
54168;DHT22;40072;50.958;3.592;2022-12-05T07:58:54;4.60;99.90
54168;DHT22;40072;50.958;3.592;2022-12-05T08:01:25;4.60;99.90
54168;DHT22;40072;50.958;3.592;2022-12-05T08:03:55;4.50;99.90
54168;DHT22;40072;50.958;3.592;2022-12-05T08:06:27;4.60;99.90
54168;DHT22;40072;50.958;3.592;2022-12-05T08:08:54;4.50;99.90
54168;DHT22;40072;50.958;3.592;2022-12-05T08:11:25;4.50;99.90
54168;DHT22;40072;50.958;3.592;2022-12-05T08:13:52;4.60;99.90
54168;DHT22;40072;50.958;3.592;2022-12-05T08:16:21;4.60;99.90
54168;DHT22;40072;50.958;3.592;2022-12-05T08:18:47;4.80;99.90
54168;DHT22;40072;50.958;3.592;2022-12-05T08:21:18;4.80;99.90
54168;DHT22;40072;50.958;3.592;2022-12-05T08:23:44;4.80;99.90
54168;DHT22;40072;50.958;3.592;2022-12-05T08:26:16;4.80;99.90
54168;DHT22;40072;50.958;3.592;2022-12-05T08:28:43;4.80;99.90
54168;DHT22;40072;50.958;3.592;2022-12-05T08:31:11;4.80;99.90
54168;DHT22;40072;50.958;3.592;2022-12-05T08:33:38;4.90;99.90
54168;DHT22;40072;50.958;3.592;2022-12-05T08:36:06;4.80;99.90
54168;DHT22;40072;50.958;3.592;2022-12-05T08:38:33;4.80;99.90
54168;DHT22;40072;50.958;3.592;2022-12-05T08:41:04;4.80;99.90
54168;DHT22;40072;50.958;3.592;2022-12-05T08:43:30;4.80;99.90
54168;DHT22;40072;50.958;3.592;2022-12-05T08:45:57;4.80;99.90
54168;DHT22;40072;50.958;3.592;2022-12-05T08:48:24;4.90;99.90
54168;DHT22;40072;50.958;3.592;2022-12-05T08:50:50;4.80;99.90
54168;DHT22;40072;50.958;3.592;2022-12-05T08:53:16;4.70;99.90
54168;DHT22;40072;50.958;3.592;2022-12-05T08:55:41;4.90;99.90
54168;DHT22;40072;50.958;3.592;2022-12-05T08:58:07;5.00;99.90
54168;DHT22;40072;50.958;3.592;2022-12-05T09:00:33;4.90;99.90
54168;DHT22;40072;50.958;3.592;2022-12-05T09:02:58;5.00;99.90
54168;DHT22;40072;50.958;3.592;2022-12-05T09:05:24;4.90;99.90
54168;DHT22;40072;50.958;3.592;2022-12-05T09:07:50;4.90;99.90
54168;DHT22;40072;50.958;3.592;2022-12-05T09:10:17;4.80;99.90
54168;DHT22;40072;50.958;3.592;2022-12-05T09:12:43;4.90;99.90
54168;DHT22;40072;50.958;3.592;2022-12-05T09:15:10;5.20;99.90
54168;DHT22;40072;50.958;3.592;2022-12-05T09:17:37;5.20;99.90
54168;DHT22;40072;50.958;3.592;2022-12-05T09:20:04;4.90;99.90
54168;DHT22;40072;50.958;3.592;2022-12-05T09:22:30;5.00;99.90
54168;DHT22;40072;50.958;3.592;2022-12-05T09:24:55;4.90;99.90
54168;DHT22;40072;50.958;3.592;2022-12-05T09:27:21;5.20;99.90
54168;DHT22;40072;50.958;3.592;2022-12-05T09:29:47;5.10;99.90
54168;DHT22;40072;50.958;3.592;2022-12-05T09:32:12;5.20;99.90
54168;DHT22;40072;50.958;3.592;2022-12-05T09:34:38;5.20;99.90
54168;DHT22;40072;50.958;3.592;2022-12-05T09:37:05;5.10;99.90
54168;DHT22;40072;50.958;3.592;2022-12-05T09:39:31;5.00;99.90
54168;DHT22;40072;50.958;3.592;2022-12-05T09:50:32;5.20;99.90
54168;DHT22;40072;50.958;3.592;2022-12-05T09:53:00;5.20;99.90
54168;DHT22;40072;50.958;3.592;2022-12-05T10:07:07;5.10;99.90
54168;DHT22;40072;50.958;3.592;2022-12-05T10:14:57;5.20;99.90
54168;DHT22;40072;50.958;3.592;2022-12-05T10:19:59;5.00;99.90
54168;DHT22;40072;50.958;3.592;2022-12-05T10:22:45;5.00;99.90
54168;DHT22;40072;50.958;3.592;2022-12-05T10:25:14;5.30;99.90
54168;DHT22;40072;50.958;3.592;2022-12-05T10:27:46;5.50;99.90
54168;DHT22;40072;50.958;3.592;2022-12-05T10:30:18;5.40;99.90
54168;DHT22;40072;50.958;3.592;2022-12-05T10:33:17;5.40;99.90
54168;DHT22;40072;50.958;3.592;2022-12-05T10:35:45;5.40;99.90
54168;DHT22;40072;50.958;3.592;2022-12-05T10:38:43;5.10;99.90
54168;DHT22;40072;50.958;3.592;2022-12-05T10:41:12;5.00;99.90
54168;DHT22;40072;50.958;3.592;2022-12-05T10:43:43;5.10;99.90
54168;DHT22;40072;50.958;3.592;2022-12-05T10:46:11;5.00;99.90
54168;DHT22;40072;50.958;3.592;2022-12-05T10:48:39;5.10;99.90
54168;DHT22;40072;50.958;3.592;2022-12-05T10:51:06;5.20;99.90
54168;DHT22;40072;50.958;3.592;2022-12-05T10:56:37;5.40;99.90
54168;DHT22;40072;50.958;3.592;2022-12-05T10:59:05;5.50;99.90
54168;DHT22;40072;50.958;3.592;2022-12-05T11:01:32;5.60;99.90
54168;DHT22;40072;50.958;3.592;2022-12-05T11:04:00;5.70;99.90
54168;DHT22;40072;50.958;3.592;2022-12-05T11:06:30;5.90;99.90
54168;DHT22;40072;50.958;3.592;2022-12-05T11:09:19;6.10;99.90
54168;DHT22;40072;50.958;3.592;2022-12-05T11:12:00;6.00;99.90
54168;DHT22;40072;50.958;3.592;2022-12-05T11:14:27;6.00;99.90
54168;DHT22;40072;50.958;3.592;2022-12-05T11:16:59;5.90;99.90
54168;DHT22;40072;50.958;3.592;2022-12-05T11:21:53;5.90;99.90
54168;DHT22;40072;50.958;3.592;2022-12-05T11:24:36;6.00;99.90
54168;DHT22;40072;50.958;3.592;2022-12-05T11:29:40;6.10;99.90
54168;DHT22;40072;50.958;3.592;2022-12-05T11:32:17;6.00;99.90
54168;DHT22;40072;50.958;3.592;2022-12-05T11:40:16;6.00;99.90
54168;DHT22;40072;50.958;3.592;2022-12-05T11:45:38;6.20;99.90
54168;DHT22;40072;50.958;3.592;2022-12-05T11:48:24;6.20;99.90
54168;DHT22;40072;50.958;3.592;2022-12-05T11:51:28;6.20;99.90
54168;DHT22;40072;50.958;3.592;2022-12-05T12:07:10;6.30;99.90
54168;DHT22;40072;50.958;3.592;2022-12-05T12:18:23;6.00;99.90
54168;DHT22;40072;50.958;3.592;2022-12-05T12:20:59;6.10;99.90
54168;DHT22;40072;50.958;3.592;2022-12-05T12:23:50;6.10;99.90
54168;DHT22;40072;50.958;3.592;2022-12-05T12:39:19;6.20;99.90
54168;DHT22;40072;50.958;3.592;2022-12-05T12:47:23;6.30;99.90
54168;DHT22;40072;50.958;3.592;2022-12-05T12:55:52;6.60;99.90
54168;DHT22;40072;50.958;3.592;2022-12-05T12:58:53;6.70;99.90
54168;DHT22;40072;50.958;3.592;2022-12-05T13:01:41;6.50;99.90
54168;DHT22;40072;50.958;3.592;2022-12-05T13:04:12;6.30;99.90
54168;DHT22;40072;50.958;3.592;2022-12-05T13:11:42;6.50;99.90
54168;DHT22;40072;50.958;3.592;2022-12-05T13:14:14;6.50;99.90
54168;DHT22;40072;50.958;3.592;2022-12-05T13:16:43;6.50;99.90
54168;DHT22;40072;50.958;3.592;2022-12-05T13:19:35;6.50;99.90
54168;DHT22;40072;50.958;3.592;2022-12-05T13:22:06;6.50;99.90
54168;DHT22;40072;50.958;3.592;2022-12-05T13:24:33;6.40;99.90
54168;DHT22;40072;50.958;3.592;2022-12-05T13:27:03;6.40;99.90
54168;DHT22;40072;50.958;3.592;2022-12-05T13:29:41;6.50;99.90
54168;DHT22;40072;50.958;3.592;2022-12-05T13:34:49;6.50;99.90
54168;DHT22;40072;50.958;3.592;2022-12-05T13:37:27;6.50;99.90
54168;DHT22;40072;50.958;3.592;2022-12-05T13:40:28;6.70;99.90
54168;DHT22;40072;50.958;3.592;2022-12-05T13:43:18;7.10;99.90
54168;DHT22;40072;50.958;3.592;2022-12-05T13:46:11;7.20;99.90
54168;DHT22;40072;50.958;3.592;2022-12-05T13:48:45;7.20;99.90
54168;DHT22;40072;50.958;3.592;2022-12-05T13:51:42;7.00;99.90
54168;DHT22;40072;50.958;3.592;2022-12-05T13:54:11;6.80;99.90
54168;DHT22;40072;50.958;3.592;2022-12-05T13:56:55;6.80;99.90
54168;DHT22;40072;50.958;3.592;2022-12-05T14:00:03;6.80;99.90
54168;DHT22;40072;50.958;3.592;2022-12-05T14:07:43;6.60;99.90
54168;DHT22;40072;50.958;3.592;2022-12-05T14:10:14;6.60;99.90
54168;DHT22;40072;50.958;3.592;2022-12-05T14:15:37;6.30;99.90
54168;DHT22;40072;50.958;3.592;2022-12-05T14:18:24;6.40;99.90
54168;DHT22;40072;50.958;3.592;2022-12-05T14:21:09;6.50;99.90
54168;DHT22;40072;50.958;3.592;2022-12-05T14:24:00;6.40;99.90
54168;DHT22;40072;50.958;3.592;2022-12-05T14:34:54;6.30;99.90
54168;DHT22;40072;50.958;3.592;2022-12-05T14:37:33;6.30;99.90
54168;DHT22;40072;50.958;3.592;2022-12-05T14:40:02;6.30;99.90
54168;DHT22;40072;50.958;3.592;2022-12-05T14:44:57;6.30;99.90
54168;DHT22;40072;50.958;3.592;2022-12-05T14:47:26;6.50;99.90
54168;DHT22;40072;50.958;3.592;2022-12-05T15:01:27;6.60;99.90
54168;DHT22;40072;50.958;3.592;2022-12-05T15:04:17;6.70;99.90
54168;DHT22;40072;50.958;3.592;2022-12-05T15:06:54;6.70;99.90
54168;DHT22;40072;50.958;3.592;2022-12-05T15:10:22;6.80;99.90
54168;DHT22;40072;50.958;3.592;2022-12-05T15:12:37;6.80;99.90
54168;DHT22;40072;50.958;3.592;2022-12-05T15:17:59;6.80;99.90
54168;DHT22;40072;50.958;3.592;2022-12-05T15:23:46;6.90;99.90
54168;DHT22;40072;50.958;3.592;2022-12-05T15:29:00;6.50;99.90
54168;DHT22;40072;50.958;3.592;2022-12-05T15:31:29;6.60;99.90
54168;DHT22;40072;50.958;3.592;2022-12-05T15:34:00;6.60;99.90
54168;DHT22;40072;50.958;3.592;2022-12-05T15:36:33;6.80;99.90
54168;DHT22;40072;50.958;3.592;2022-12-05T15:39:17;6.60;99.90
54168;DHT22;40072;50.958;3.592;2022-12-05T15:41:44;6.50;99.90
54168;DHT22;40072;50.958;3.592;2022-12-05T15:44:10;6.60;99.90
54168;DHT22;40072;50.958;3.592;2022-12-05T15:46:36;6.50;99.90
54168;DHT22;40072;50.958;3.592;2022-12-05T15:49:16;6.60;99.90
54168;DHT22;40072;50.958;3.592;2022-12-05T15:51:46;6.70;99.90
54168;DHT22;40072;50.958;3.592;2022-12-05T15:54:20;6.80;99.90
54168;DHT22;40072;50.958;3.592;2022-12-05T15:57:14;6.70;99.90
54168;DHT22;40072;50.958;3.592;2022-12-05T15:59:46;6.60;99.90
54168;DHT22;40072;50.958;3.592;2022-12-05T16:02:32;6.50;99.90
54168;DHT22;40072;50.958;3.592;2022-12-05T16:05:00;6.60;99.90
54168;DHT22;40072;50.958;3.592;2022-12-05T16:07:28;6.40;99.90
54168;DHT22;40072;50.958;3.592;2022-12-05T16:09:57;6.40;99.90
54168;DHT22;40072;50.958;3.592;2022-12-05T16:12:33;6.40;99.90
54168;DHT22;40072;50.958;3.592;2022-12-05T16:15:06;6.40;99.90
54168;DHT22;40072;50.958;3.592;2022-12-05T16:17:41;6.40;99.90
54168;DHT22;40072;50.958;3.592;2022-12-05T16:22:43;6.40;99.90
54168;DHT22;40072;50.958;3.592;2022-12-05T16:25:14;6.40;99.90
54168;DHT22;40072;50.958;3.592;2022-12-05T16:27:39;6.20;99.90
54168;DHT22;40072;50.958;3.592;2022-12-05T16:32:41;6.20;99.90
54168;DHT22;40072;50.958;3.592;2022-12-05T16:40:30;6.30;99.90
54168;DHT22;40072;50.958;3.592;2022-12-05T16:43:04;6.30;99.90
54168;DHT22;40072;50.958;3.592;2022-12-05T16:45:39;6.20;99.90
54168;DHT22;40072;50.958;3.592;2022-12-05T16:51:38;6.20;99.90
54168;DHT22;40072;50.958;3.592;2022-12-05T16:53:49;6.20;99.90
54168;DHT22;40072;50.958;3.592;2022-12-05T16:58:52;6.10;99.90
54168;DHT22;40072;50.958;3.592;2022-12-05T17:01:20;6.10;99.90
54168;DHT22;40072;50.958;3.592;2022-12-05T17:03:47;6.20;99.90
54168;DHT22;40072;50.958;3.592;2022-12-05T17:06:13;6.20;99.90
54168;DHT22;40072;50.958;3.592;2022-12-05T17:08:40;6.20;99.90
54168;DHT22;40072;50.958;3.592;2022-12-05T17:11:13;6.20;99.90
54168;DHT22;40072;50.958;3.592;2022-12-05T17:13:39;6.20;99.90
54168;DHT22;40072;50.958;3.592;2022-12-05T17:16:05;6.30;99.90
54168;DHT22;40072;50.958;3.592;2022-12-05T17:18:32;6.20;99.90
54168;DHT22;40072;50.958;3.592;2022-12-05T17:20:59;6.30;99.90
54168;DHT22;40072;50.958;3.592;2022-12-05T17:23:25;6.30;99.90
54168;DHT22;40072;50.958;3.592;2022-12-05T17:25:53;6.20;99.90
54168;DHT22;40072;50.958;3.592;2022-12-05T17:28:21;6.10;99.90
54168;DHT22;40072;50.958;3.592;2022-12-05T17:30:47;6.10;99.90
54168;DHT22;40072;50.958;3.592;2022-12-05T17:33:14;6.20;99.90
54168;DHT22;40072;50.958;3.592;2022-12-05T17:35:41;6.20;99.90
54168;DHT22;40072;50.958;3.592;2022-12-05T17:38:07;6.40;99.90
54168;DHT22;40072;50.958;3.592;2022-12-05T17:40:33;6.40;99.90
54168;DHT22;40072;50.958;3.592;2022-12-05T17:42:59;6.40;99.90
54168;DHT22;40072;50.958;3.592;2022-12-05T17:45:25;6.40;99.90
54168;DHT22;40072;50.958;3.592;2022-12-05T17:47:51;6.40;99.90
54168;DHT22;40072;50.958;3.592;2022-12-05T17:50:19;6.40;99.90
54168;DHT22;40072;50.958;3.592;2022-12-05T17:52:46;6.30;99.90
54168;DHT22;40072;50.958;3.592;2022-12-05T17:55:19;6.40;99.90
54168;DHT22;40072;50.958;3.592;2022-12-05T17:57:45;6.50;99.90
54168;DHT22;40072;50.958;3.592;2022-12-05T18:00:12;6.50;99.90
54168;DHT22;40072;50.958;3.592;2022-12-05T18:02:39;6.50;99.90
54168;DHT22;40072;50.958;3.592;2022-12-05T18:05:05;6.50;99.90
54168;DHT22;40072;50.958;3.592;2022-12-05T18:07:31;6.40;99.90
54168;DHT22;40072;50.958;3.592;2022-12-05T18:09:56;6.50;99.90
54168;DHT22;40072;50.958;3.592;2022-12-05T18:12:22;6.50;99.90
54168;DHT22;40072;50.958;3.592;2022-12-05T18:14:48;6.50;99.90
54168;DHT22;40072;50.958;3.592;2022-12-05T18:17:13;6.50;99.90
54168;DHT22;40072;50.958;3.592;2022-12-05T18:19:39;6.60;99.90
54168;DHT22;40072;50.958;3.592;2022-12-05T18:22:05;6.50;99.90
54168;DHT22;40072;50.958;3.592;2022-12-05T18:24:30;6.60;99.90
54168;DHT22;40072;50.958;3.592;2022-12-05T18:26:56;6.60;99.90
54168;DHT22;40072;50.958;3.592;2022-12-05T18:29:22;6.60;99.90
54168;DHT22;40072;50.958;3.592;2022-12-05T18:31:48;6.60;99.90
54168;DHT22;40072;50.958;3.592;2022-12-05T18:34:14;6.60;99.90
54168;DHT22;40072;50.958;3.592;2022-12-05T18:36:40;6.50;99.90
54168;DHT22;40072;50.958;3.592;2022-12-05T18:39:08;6.60;99.90
54168;DHT22;40072;50.958;3.592;2022-12-05T18:41:35;6.70;99.90
54168;DHT22;40072;50.958;3.592;2022-12-05T18:44:00;6.90;99.90
54168;DHT22;40072;50.958;3.592;2022-12-05T18:46:26;6.70;99.90
54168;DHT22;40072;50.958;3.592;2022-12-05T18:48:52;6.60;99.90
54168;DHT22;40072;50.958;3.592;2022-12-05T18:51:22;6.60;99.90
54168;DHT22;40072;50.958;3.592;2022-12-05T18:53:50;6.60;99.90
54168;DHT22;40072;50.958;3.592;2022-12-05T18:56:18;6.60;99.90
54168;DHT22;40072;50.958;3.592;2022-12-05T18:58:44;6.60;99.90
54168;DHT22;40072;50.958;3.592;2022-12-05T19:01:12;6.50;99.90
54168;DHT22;40072;50.958;3.592;2022-12-05T19:03:40;6.40;99.90
54168;DHT22;40072;50.958;3.592;2022-12-05T19:06:13;6.40;99.90
54168;DHT22;40072;50.958;3.592;2022-12-05T19:08:40;6.30;99.90
54168;DHT22;40072;50.958;3.592;2022-12-05T19:11:06;6.40;99.90
54168;DHT22;40072;50.958;3.592;2022-12-05T19:13:32;6.30;99.90